New York, NY

7:47 PM EDT on August 29, 2016 (GMT -0400)
Chelsea, West 28th St. | | Change Station
Active Advisory: Special Statement

Elev 110 ft 40.75 °N, 73.99 °W | Updated 32 seconds ago

Clear
Clear
84.0 °F
Feels Like 82 °F
N
0.9
Wind Variable Wind from SE
Gusts 2.5 mph

Today
High -- | Low -- °F
--% Chance of Precip.
Yesterday
High -- | Low -- °F
Precip. -- in
Pressure 30.08 in
Visibility 10.0 miles
Clouds Clear
Heat Index 82 °F
Dew Point 52 °F
Humidity 33%
Rainfall 0.00 in
Snow Depth Not available.
6:20 AM 7:32 PM
Waning Crescent, 6% visible
METAR KNYC 292251Z AUTO VRB05KT 10SM CLR 30/14 A3011 RMK AO2 SLP184 T03000139
Pressure 30.08 in
Visibility 10.0 miles
Clouds Clear
Heat Index 82 °F
Dew Point 52 °F
Humidity 33%
Rainfall 0.00 in
Snow Depth Not available.
6:20 AM 7:32 PM
Waning Crescent, 6% visible
METAR KNYC 292251Z AUTO VRB05KT 10SM CLR 30/14 A3011 RMK AO2 SLP184 T03000139

10-Day Weather Forecast

Almanac

Astronomy

Aug. 29, 2016 Rise Set
Actual Time
Civil Twilight
Nautical Twilight
Astronomical Twilight
Moon
Length of Visible Light
Length of Day
Tomorrow will be .
, % of the Moon is Illuminated

Today's Extremes

State Highs State Lows

Community

WunderPhotos

Upload Photos

1,935,695 photos uploaded!

WunderBlog® & News

Nearby

Air Quality

  Air Quality AQ Index Pollutant
Not available.

Snow Depth

Station Depth Elevation

Earthquake Activity

City Distance Mag. Time & Date
Minimum magnitude displayed is 2.5.

Coastal Water Temperatures

Place Temperature

Stations

Nearby Weather Stations

Station Location Temp. Windchill Dew Point Humidity Wind Precip. Elev Updated Type
                   

Watches & Warnings

Special Statement
Issued: 3:43 PM EDT Aug. 29, 2016 – National Weather Service

A hot and quickly drying air mass will combine with gusty
northwest winds to create conditions more conducive for fire
spread late this afternoon until close to sunset across the New
York City metropolitan area... western Long Island... and southern
Connecticut.

Relative humidities decreasing to 25 to 35 percent during this
time... while winds gust to 20 to 25 mph... would likely aid fire
spread if ignition occurs.

Stay tuned to NOAA all hazards weather radio or visit our web
site at weather.Gov/NYC for further details and updates.


343 PM EDT Mon Aug 29 2016

A hot and quickly drying air mass will combine with gusty
northwest winds to create conditions more conducive for fire
spread late this afternoon until close to sunset across the New
York City metropolitan area... western Long Island... and southern
Connecticut.

Relative humidities decreasing to 25 to 35 percent during this
time... while winds gust to 20 to 25 mph... would likely aid fire
spread if ignition occurs.

Stay tuned to NOAA all hazards weather radio or visit our web
site at weather.Gov/NYC for further details and updates.